Time;durP1;ratioP1;P1;durP2;ratioP2;P2;SDS_P1;SDS_P2;PMS_P1;PMS_P2;Temp;Humidity;BMP_temperature;BMP_pressure;BME280_temperature;BME280_humidity;BME280_pressure;Samples;Min_cycle;Max_cycle;Signal;HPM_P1;HPM_P2
2020/12/03 07:47:17;;;;;;;;;;;19.30;51.00;;;;;;5008332;28;20377;-62
2020/12/03 07:49:45;;;;;;;;;;;19.30;48.60;;;;;;4998772;28;91887;-61
2020/12/03 07:52:18;;;;;;;;;;;19.20;48.90;;;;;;4989021;28;73969;-63
2020/12/03 07:54:44;;;;;;;;;;;19.30;49.00;;;;;;5012518;28;19933;-61
2020/12/03 07:57:23;;;;;;;;;;;19.40;48.90;;;;;;5026985;28;19933;-61
2020/12/03 07:59:49;;;;;;;;;;;19.50;48.90;;;;;;5027994;28;19937;-63
2020/12/03 08:02:33;;;;;;;;;;;19.60;48.70;;;;;;5022905;28;19936;-61
2020/12/03 08:05:20;;;;;;;;;;;19.70;48.70;;;;;;5029944;28;19976;-62
2020/12/03 08:07:46;;;;;;;;;;;19.80;48.60;;;;;;5028697;28;19983;-61
2020/12/03 08:10:27;;;;;;;;;;;20.00;48.50;;;;;;5033073;28;19925;-61
2020/12/03 08:13:05;;;;;;;;;;;20.00;48.30;;;;;;5029118;28;19956;-60
2020/12/03 08:15:34;;;;;;;;;;;20.10;48.30;;;;;;5027422;28;19975;-63
2020/12/03 08:18:00;;;;;;;;;;;20.20;48.10;;;;;;5027203;28;19936;-63
2020/12/03 08:20:44;;;;;;;;;;;20.30;48.00;;;;;;5028966;28;19936;-61
2020/12/03 08:23:13;;;;;;;;;;;20.40;48.10;;;;;;5025174;28;20318;-60
2020/12/03 08:25:45;;;;;;;;;;;20.40;48.00;;;;;;5026931;28;19933;-62
2020/12/03 08:28:17;;;;;;;;;;;20.50;47.90;;;;;;5030245;28;19933;-60
2020/12/03 08:30:47;;;;;;;;;;;20.50;47.90;;;;;;5028005;28;19940;-62
2020/12/03 08:33:17;;;;;;;;;;;20.60;47.90;;;;;;5023163;28;19929;-72
2020/12/03 08:35:48;;;;;;;;;;;21.40;47.10;;;;;;5020122;28;20020;-66
2020/12/03 08:38:15;;;;;;;7.68;5.05;;;21.90;46.20;;;;;;5024400;28;20484;-73
2020/12/03 08:40:42;;;;;;;6.68;5.28;;;22.90;45.00;;;;;;5017899;28;20417;-72
2020/12/03 08:43:10;;;;;;;6.32;5.72;;;23.40;43.70;;;;;;5017037;28;20438;-74
2020/12/03 08:45:46;;;;;;;5.70;5.30;;;23.50;43.20;;;;;;5028635;28;21397;-74
2020/12/03 08:48:23;;;;;;;5.23;4.83;;;23.60;43.00;;;;;;5039728;28;20438;-77
2020/12/03 08:50:58;;;;;;;5.50;5.05;;;23.60;42.70;;;;;;5038720;28;20437;-76
2020/12/03 08:53:27;;;;;;;5.72;5.22;;;23.70;42.70;;;;;;5037941;28;20438;-76
2020/12/03 08:55:54;;;;;;;5.40;5.00;;;23.70;42.60;;;;;;5033376;28;20451;-76
2020/12/03 08:58:24;;;;;;;5.13;4.72;;;23.70;42.10;;;;;;5025946;28;20471;-76
2020/12/03 09:00:53;;;;;;;4.60;4.30;;;23.70;42.30;;;;;;5032243;28;20431;-75
2020/12/03 09:03:22;;;;;;;4.85;4.55;;;23.70;42.50;;;;;;5029257;28;20430;-77
2020/12/03 09:05:50;;;;;;;5.20;4.77;;;23.70;42.20;;;;;;5029889;28;20532;-76
2020/12/03 09:08:20;;;;;;;5.10;4.70;;;23.70;42.50;;;;;;5031848;28;20630;-74
2020/12/03 09:10:49;;;;;;;5.10;4.70;;;23.80;42.20;;;;;;5029303;28;20485;-79
2020/12/03 09:13:18;;;;;;;5.40;5.00;;;23.80;42.20;;;;;;5028501;28;20440;-72
2020/12/03 09:15:46;;;;;;;5.38;4.97;;;23.80;42.00;;;;;;5025018;28;20637;-75
2020/12/03 09:18:13;;;;;;;5.38;4.88;;;23.80;41.80;;;;;;5030524;28;20430;-77
2020/12/03 09:20:43;;;;;;;5.13;4.70;;;23.70;41.70;;;;;;5030141;28;20442;-76
2020/12/03 09:23:17;;;;;;;5.22;4.82;;;23.80;41.30;;;;;;5026398;28;20442;-75
2020/12/03 09:25:44;;;;;;;9.02;4.80;;;23.80;41.10;;;;;;5030634;28;20427;-76
2020/12/03 09:28:11;;;;;;;4.80;4.40;;;23.90;40.90;;;;;;5030688;28;20441;-74
2020/12/03 09:30:40;;;;;;;5.20;4.80;;;23.90;40.60;;;;;;5029871;28;20427;-74
2020/12/03 09:33:14;;;;;;;5.05;4.65;;;23.90;40.40;;;;;;5030581;28;20855;-74
2020/12/03 09:35:43;;;;;;;5.50;4.90;;;23.90;40.00;;;;;;5029437;28;20454;-74
2020/12/03 09:38:10;;;;;;;4.82;4.43;;;23.80;40.10;;;;;;5030585;28;20517;-74
2020/12/03 09:40:37;;;;;;;4.97;4.57;;;23.90;39.90;;;;;;5032231;28;20427;-74
2020/12/03 09:43:04;;;;;;;4.63;4.33;;;23.90;39.70;;;;;;5030146;28;20743;-74
2020/12/03 09:45:37;;;;;;;4.85;4.45;;;23.90;39.60;;;;;;5028211;28;20903;-77
2020/12/03 09:48:04;;;;;;;4.78;4.35;;;23.90;39.70;;;;;;5029652;28;20434;-74
2020/12/03 09:50:31;;;;;;;4.90;4.50;;;23.80;39.60;;;;;;5032764;28;20435;-76
2020/12/03 09:53:00;;;;;;;5.57;4.30;;;23.90;39.50;;;;;;5021997;28;20454;-77
2020/12/03 09:55:26;;;;;;;4.85;4.45;;;24.10;39.40;;;;;;5027612;28;20444;-76
2020/12/03 09:57:54;;;;;;;4.97;4.53;;;24.10;39.50;;;;;;5027417;28;20430;-77
2020/12/03 10:00:26;;;;;;;4.63;4.30;;;24.20;39.60;;;;;;5030483;28;20446;-74
2020/12/03 10:03:29;;;;;;;4.30;4.00;;;24.20;39.60;;;;;;5029034;28;20427;-76
2020/12/03 10:06:04;;;;;;;4.80;4.40;;;24.40;39.50;;;;;;5029608;28;20438;-77
2020/12/03 10:08:55;;;;;;;4.65;4.25;;;24.40;39.60;;;;;;5030905;28;20429;-76
2020/12/03 10:11:56;;;;;;;4.85;4.45;;;24.40;39.60;;;;;;5032876;28;20500;-78
2020/12/03 10:14:44;;;;;;;4.45;4.15;;;24.40;39.70;;;;;;5033536;28;20442;-78
2020/12/03 10:17:16;;;;;;;4.53;4.13;;;24.40;39.80;;;;;;5031023;28;20480;-76
2020/12/03 10:19:45;;;;;;;4.32;4.03;;;24.30;40.20;;;;;;5033017;28;20435;-75
2020/12/03 10:22:25;;;;;;;4.40;3.90;;;24.20;40.40;;;;;;5032593;28;20411;-76
2020/12/03 10:25:02;;;;;;;4.75;4.35;;;24.00;40.60;;;;;;5030645;28;20436;-73
2020/12/03 10:30:54;;;;;;;5.30;4.90;;;24.10;40.60;;;;;;5031310;28;20458;-79
2020/12/03 10:33:24;;;;;;;6.13;5.63;;;24.00;40.30;;;;;;5030602;28;20514;-79
2020/12/03 10:35:57;;;;;;;6.40;5.90;;;23.80;39.30;;;;;;5034409;28;20429;-79
2020/12/03 10:38:32;;;;;;;6.00;5.50;;;23.70;37.90;;;;;;5031903;28;20446;-79
2020/12/03 10:41:01;;;;;;;4.75;4.35;;;23.70;38.10;;;;;;5029939;28;20450;-78
2020/12/03 10:43:31;;;;;;;4.78;4.38;;;23.70;38.10;;;;;;5028058;28;20751;-78
2020/12/03 10:46:02;;;;;;;4.60;4.20;;;23.70;38.10;;;;;;5027788;28;20886;-78
2020/12/03 10:48:32;;;;;;;4.82;4.43;;;23.80;38.10;;;;;;5026274;28;20731;-79
2020/12/03 10:51:00;;;;;;;4.70;4.30;;;23.80;38.10;;;;;;5028379;28;20998;-77
2020/12/03 10:53:27;;;;;;;4.70;4.30;;;23.90;38.10;;;;;;5029991;28;20435;-74
2020/12/03 10:55:59;;;;;;;5.43;4.25;;;23.90;37.70;;;;;;5035051;28;20434;-74
2020/12/03 10:58:32;;;;;;;4.00;3.70;;;24.00;38.10;;;;;;5029020;28;20439;-73
2020/12/03 11:01:05;;;;;;;4.20;3.90;;;24.20;38.00;;;;;;5028653;28;20465;-73
2020/12/03 11:03:33;;;;;;;4.00;3.60;;;24.40;37.90;;;;;;5028574;28;20467;-78
2020/12/03 11:05:59;;;;;;;4.13;3.78;;;24.40;37.90;;;;;;5028969;28;20480;-76
2020/12/03 11:08:34;;;;;;;4.18;3.75;;;24.40;38.10;;;;;;5026549;28;20437;-75
2020/12/03 11:11:02;;;;;;;3.70;3.40;;;24.40;38.20;;;;;;5029112;28;21189;-75
2020/12/03 11:13:28;;;;;;;3.90;3.55;;;24.50;38.40;;;;;;5029938;28;20433;-77
2020/12/03 11:15:56;;;;;;;3.80;3.50;;;24.50;38.40;;;;;;5028913;28;20519;-76
2020/12/03 11:18:23;;;;;;;3.80;3.50;;;24.60;38.60;;;;;;5029598;28;20432;-77
2020/12/03 11:20:58;;;;;;;3.75;3.45;;;24.50;38.80;;;;;;5026912;28;20440;-78
2020/12/03 11:23:29;;;;;;;3.72;3.42;;;24.50;38.90;;;;;;5025705;28;20438;-75
2020/12/03 11:26:04;;;;;;;3.80;3.50;;;24.40;39.10;;;;;;5034198;28;20744;-78
2020/12/03 11:28:34;;;;;;;3.95;3.65;;;24.20;39.60;;;;;;5028426;28;20527;-78
2020/12/03 11:31:03;;;;;;;3.40;3.20;;;24.10;40.00;;;;;;5028930;28;20431;-75
2020/12/03 11:33:33;;;;;;;3.88;3.10;;;24.00;40.20;;;;;;5030340;28;20442;-76
2020/12/03 11:36:12;;;;;;;3.47;3.17;;;23.90;40.80;;;;;;5028293;28;20429;-76
2020/12/03 11:38:41;;;;;;;3.42;3.13;;;23.70;40.90;;;;;;5034830;28;20445;-74
2020/12/03 11:41:16;;;;;;;3.63;3.33;;;23.80;41.30;;;;;;5029688;28;20444;-74
2020/12/03 11:44:05;;;;;;;3.47;3.17;;;23.80;41.40;;;;;;5026927;28;21025;-73
2020/12/03 11:46:54;;;;;;;3.20;3.00;;;23.70;41.40;;;;;;5033058;28;20521;-74
2020/12/03 11:49:24;;;;;;;3.35;3.08;;;23.70;41.70;;;;;;5037325;28;20501;-73
2020/12/03 11:51:50;;;;;;;3.08;2.88;;;23.70;41.60;;;;;;5027655;28;20778;-74
2020/12/03 11:54:17;;;;;;;3.78;3.33;;;23.60;41.60;;;;;;5031996;28;20434;-74
2020/12/03 11:56:44;;;;;;;3.30;3.00;;;23.60;41.80;;;;;;5030487;28;20422;-76
2020/12/03 11:59:11;;;;;;;3.10;2.90;;;23.60;41.70;;;;;;5033359;28;20439;-77
2020/12/03 12:01:38;;;;;;;3.40;3.10;;;23.40;41.80;;;;;;5033801;28;20430;-76
2020/12/03 12:04:05;;;;;;;3.30;3.10;;;23.60;41.70;;;;;;5031133;28;20443;-73
2020/12/03 12:06:38;;;;;;;3.38;3.08;;;23.60;41.40;;;;;;5029024;28;20462;-75
2020/12/03 12:09:13;;;;;;;3.17;2.97;;;23.70;41.30;;;;;;5028005;28;20534;-73
2020/12/03 12:11:45;;;;;;;3.28;3.08;;;23.80;42.00;;;;;;5028585;28;21152;-73
2020/12/03 12:14:11;;;;;;;3.40;3.17;;;23.90;41.50;;;;;;5026963;28;20526;-74
2020/12/03 12:16:38;;;;;;;3.20;2.90;;;24.00;41.70;;;;;;5025676;28;20430;-75
2020/12/03 12:19:05;;;;;;;3.00;2.80;;;23.80;42.00;;;;;;5025290;28;20469;-75
2020/12/03 12:21:33;;;;;;;2.97;2.78;;;24.00;41.50;;;;;;5026937;28;20431;-77
2020/12/03 12:24:00;;;;;;;3.40;3.10;;;24.10;41.30;;;;;;5026914;28;20824;-75
2020/12/03 12:26:28;;;;;;;3.38;3.08;;;24.10;41.30;;;;;;5028379;28;20437;-73
2020/12/03 12:28:55;;;;;;;3.65;3.10;;;24.00;41.50;;;;;;5031589;28;20431;-74
2020/12/03 12:31:21;;;;;;;3.55;3.25;;;23.90;41.70;;;;;;5031312;28;20503;-74
2020/12/03 12:33:51;;;;;;;3.50;3.20;;;24.00;41.60;;;;;;5030518;28;20462;-75
2020/12/03 12:36:17;;;;;;;2.90;2.70;;;23.90;41.60;;;;;;5037993;28;20435;-74
2020/12/03 12:38:43;;;;;;;3.10;2.83;;;23.90;41.70;;;;;;5032510;28;20437;-74
2020/12/03 12:41:09;;;;;;;3.28;3.08;;;23.90;41.80;;;;;;5034187;28;20441;-75
2020/12/03 12:43:35;;;;;;;3.00;2.80;;;24.00;41.70;;;;;;5031029;28;20435;-73
2020/12/03 12:46:03;;;;;;;3.55;3.25;;;24.00;41.60;;;;;;5021436;28;20743;-75
2020/12/03 12:48:29;;;;;;;2.90;2.70;;;24.00;41.70;;;;;;5025513;28;20438;-76
2020/12/03 12:50:55;;;;;;;3.17;2.97;;;24.00;41.60;;;;;;5031560;28;20504;-72
2020/12/03 12:53:21;;;;;;;2.97;2.78;;;24.10;41.40;;;;;;5030985;28;20487;-77
2020/12/03 12:55:47;;;;;;;3.00;2.80;;;24.10;41.50;;;;;;5032261;28;20464;-72
2020/12/03 12:58:13;;;;;;;5.07;4.67;;;24.10;41.50;;;;;;5032829;28;20437;-74
2020/12/03 13:00:40;;;;;;;6.82;6.32;;;24.10;40.80;;;;;;5030656;28;20742;-73
2020/12/03 13:03:07;;;;;;;6.85;6.32;;;24.00;39.20;;;;;;5029822;28;20450;-74
2020/12/03 13:05:33;;;;;;;6.10;5.60;;;23.90;38.70;;;;;;5031483;28;20418;-74
2020/12/03 13:07:59;;;;;;;6.28;5.78;;;23.80;39.00;;;;;;5029230;28;20445;-76
2020/12/03 13:10:25;;;;;;;5.88;5.38;;;24.00;38.90;;;;;;5030878;28;20427;-75
2020/12/03 13:12:52;;;;;;;5.20;4.80;;;24.00;38.70;;;;;;5030903;28;20437;-74
2020/12/03 13:15:18;;;;;;;5.35;4.85;;;24.20;38.80;;;;;;5028120;28;20462;-74
2020/12/03 13:17:44;;;;;;;5.95;5.07;;;24.20;38.90;;;;;;5030764;28;20811;-72
2020/12/03 13:20:12;;;;;;;5.25;4.78;;;24.20;38.90;;;;;;5028177;28;20524;-74
2020/12/03 13:22:38;;;;;;;5.30;4.90;;;24.30;38.90;;;;;;5027856;28;20859;-75
2020/12/03 13:25:04;;;;;;;5.18;4.78;;;24.40;38.90;;;;;;5027061;28;20431;-75
2020/12/03 13:27:30;;;;;;;4.75;4.35;;;24.60;38.80;;;;;;5028178;28;21225;-75
2020/12/03 13:29:56;;;;;;;4.82;4.43;;;24.50;38.90;;;;;;5031935;28;20516;-77
2020/12/03 13:32:22;;;;;;;4.97;4.57;;;24.50;39.10;;;;;;5029180;28;20438;-76
2020/12/03 13:34:49;;;;;;;4.50;4.10;;;24.50;39.30;;;;;;5031958;28;20439;-74
2020/12/03 13:37:16;;;;;;;4.65;4.10;;;24.40;39.60;;;;;;5029304;28;20778;-73
2020/12/03 13:39:42;;;;;;;4.40;4.10;;;24.40;39.90;;;;;;5032241;28;20778;-76
2020/12/03 13:42:08;;;;;;;4.50;4.10;;;24.30;39.80;;;;;;5031807;28;20449;-76
2020/12/03 13:44:34;;;;;;;4.60;4.20;;;24.20;40.00;;;;;;5029923;28;20443;-74
2020/12/03 13:47:02;;;;;;;4.78;4.28;;;24.10;40.40;;;;;;5030955;28;20466;-77
2020/12/03 13:49:28;;;;;;;5.93;4.28;;;24.20;40.30;;;;;;5032056;28;20434;-73
2020/12/03 13:51:54;;;;;;;4.55;4.18;;;24.20;40.20;;;;;;5030911;28;20497;-76
2020/12/03 13:54:21;;;;;;;4.13;3.83;;;24.00;40.30;;;;;;5028827;28;20768;-75
2020/12/03 13:56:47;;;;;;;4.65;4.15;;;24.00;40.40;;;;;;5028916;28;20430;-76
2020/12/03 13:59:14;;;;;;;4.43;4.03;;;24.10;40.50;;;;;;5027293;28;20441;-72
2020/12/03 14:01:40;;;;;;;4.80;4.40;;;24.00;40.60;;;;;;5027703;28;20450;-76
2020/12/03 14:04:06;;;;;;;4.68;4.28;;;23.80;41.10;;;;;;5027210;28;20443;-74
2020/12/03 14:06:32;;;;;;;3.97;3.67;;;23.80;41.00;;;;;;5027202;28;20755;-75
2020/12/03 14:08:58;;;;;;;4.43;4.13;;;23.90;41.00;;;;;;5029355;28;20438;-78
2020/12/03 14:11:25;;;;;;;4.18;3.85;;;23.90;41.00;;;;;;5025169;28;20430;-74
2020/12/03 14:13:53;;;;;;;4.10;3.80;;;24.00;40.90;;;;;;5027747;28;20717;-76
2020/12/03 14:16:19;;;;;;;4.00;3.70;;;24.00;41.00;;;;;;5027374;28;21264;-74
2020/12/03 14:18:45;;;;;;;4.05;3.65;;;24.10;40.90;;;;;;5029043;28;20426;-76
2020/12/03 14:21:11;;;;;;;4.20;3.78;;;24.10;41.00;;;;;;5028313;28;20732;-78
2020/12/03 14:23:37;;;;;;;3.47;3.17;;;24.20;40.80;;;;;;5027510;28;20438;-79
2020/12/03 14:26:05;;;;;;;3.72;3.42;;;24.10;41.00;;;;;;5028207;28;20523;-78
2020/12/03 14:28:32;;;;;;;4.15;3.85;;;24.10;41.10;;;;;;5028358;28;20766;-75
2020/12/03 14:30:58;;;;;;;3.67;3.38;;;24.10;41.00;;;;;;5029184;28;20445;-77
2020/12/03 14:33:24;;;;;;;4.50;4.20;;;24.30;40.80;;;;;;5025727;28;20449;-76
2020/12/03 14:35:51;;;;;;;7.72;7.13;;;24.10;40.50;;;;;;5026388;28;20442;-78
2020/12/03 14:38:17;;;;;;;6.93;6.18;;;23.30;37.00;;;;;;5024053;28;20446;-74
2020/12/03 14:40:43;;;;;;;5.30;4.90;;;22.80;39.30;;;;;;5023732;28;20451;-76
2020/12/03 14:43:09;;;;;;;5.35;4.90;;;23.20;38.60;;;;;;5028065;28;20426;-77
2020/12/03 14:45:37;;;;;;;4.88;4.28;;;23.60;37.50;;;;;;5028528;28;20431;-75
2020/12/03 14:48:03;;;;;;;4.18;3.88;;;23.90;36.80;;;;;;5029517;28;20442;-76
2020/12/03 14:50:34;;;;;;;3.85;3.55;;;24.10;36.90;;;;;;5028161;28;20431;-77
2020/12/03 14:53:00;;;;;;;4.15;3.75;;;24.30;36.80;;;;;;5027725;28;20449;-73
2020/12/03 14:55:30;;;;;;;4.00;3.70;;;24.50;36.80;;;;;;5027261;28;20461;-73
2020/12/03 14:57:56;;;;;;;3.65;3.13;;;24.50;36.80;;;;;;5028334;28;20510;-73
2020/12/03 15:00:22;;;;;;;3.63;3.33;;;24.70;37.00;;;;;;5027196;28;21333;-77
2020/12/03 15:02:50;;;;;;;4.22;3.75;;;24.70;37.10;;;;;;5027700;28;20461;-72
2020/12/03 15:05:16;;;;;;;3.58;3.28;;;24.80;37.10;;;;;;5024307;28;20814;-74
2020/12/03 15:07:43;;;;;;;3.58;3.28;;;24.80;37.40;;;;;;5026873;28;20492;-74
2020/12/03 15:10:12;;;;;;;3.63;3.33;;;24.70;37.50;;;;;;5025268;28;20430;-75
2020/12/03 15:12:38;;;;;;;3.80;3.10;;;24.70;37.70;;;;;;5026595;28;20965;-75
2020/12/03 15:15:05;;;;;;;3.63;3.28;;;24.70;38.10;;;;;;5026303;28;20442;-76
2020/12/03 15:17:31;;;;;;;3.10;2.90;;;24.50;38.30;;;;;;5027445;28;20492;-77
2020/12/03 15:19:58;;;;;;;3.27;3.03;;;24.30;39.00;;;;;;5027324;28;20441;-74
2020/12/03 15:22:24;;;;;;;3.03;2.83;;;24.10;39.40;;;;;;5024926;28;20480;-71
2020/12/03 15:24:50;;;;;;;3.15;2.95;;;24.20;39.50;;;;;;5024996;28;20769;-73
2020/12/03 15:27:17;;;;;;;3.10;2.85;;;24.10;39.50;;;;;;5027589;28;20446;-73
2020/12/03 15:29:43;;;;;;;2.90;2.70;;;24.10;39.80;;;;;;5028381;28;20438;-73
2020/12/03 15:32:09;;;;;;;3.33;3.00;;;24.00;40.20;;;;;;5029279;28;20435;-74
2020/12/03 15:34:35;;;;;;;3.03;2.83;;;24.00;40.30;;;;;;5031563;28;20893;-74
2020/12/03 15:37:04;;;;;;;3.22;2.97;;;24.00;40.30;;;;;;5026838;28;20431;-74
2020/12/03 15:39:35;;;;;;;3.10;2.90;;;23.80;40.50;;;;;;5027325;28;20863;-78
2020/12/03 15:42:08;;;;;;;3.23;2.93;;;23.80;40.90;;;;;;5029621;28;21087;-77
2020/12/03 15:44:36;;;;;;;3.58;2.92;;;23.70;41.20;;;;;;5028205;28;20437;-74
2020/12/03 15:47:02;;;;;;;3.20;2.90;;;23.70;41.50;;;;;;5028576;28;20859;-74
2020/12/03 15:49:29;;;;;;;2.90;2.60;;;23.60;41.50;;;;;;5028374;28;20433;-74
2020/12/03 15:51:55;;;;;;;3.03;2.83;;;23.70;41.60;;;;;;5027406;28;20442;-74
2020/12/03 15:54:23;;;;;;;2.50;2.30;;;23.50;41.80;;;;;;5032726;28;20431;-74
2020/12/03 15:56:51;;;;;;;3.00;2.80;;;23.40;42.10;;;;;;5026755;28;20991;-76
2020/12/03 15:59:19;;;;;;;2.80;2.60;;;23.50;41.80;;;;;;5025531;28;20437;-75
2020/12/03 16:01:46;;;;;;;2.63;2.42;;;23.60;41.80;;;;;;5026901;28;20442;-74
2020/12/03 16:04:13;;;;;;;2.72;2.53;;;23.60;41.50;;;;;;5023345;28;20671;-73
2020/12/03 16:06:39;;;;;;;2.92;2.72;;;23.60;41.40;;;;;;5028945;28;20431;-74
2020/12/03 16:09:06;;;;;;;2.53;2.33;;;23.50;41.30;;;;;;5026423;28;20434;-75
2020/12/03 16:11:33;;;;;;;3.10;2.50;;;23.70;41.30;;;;;;5021216;28;20446;-72
2020/12/03 16:14:00;;;;;;;3.10;2.90;;;23.80;41.10;;;;;;5029263;28;20583;-74
2020/12/03 16:16:26;;;;;;;2.42;2.22;;;23.80;41.00;;;;;;5035002;28;20454;-74
2020/12/03 16:18:52;;;;;;;2.63;2.42;;;23.80;41.10;;;;;;5033431;28;20830;-75
2020/12/03 16:21:19;;;;;;;3.25;2.70;;;23.80;41.00;;;;;;5030463;28;20446;-74
2020/12/03 16:23:45;;;;;;;2.88;2.67;;;23.90;40.90;;;;;;5023902;28;20484;-74
2020/12/03 16:26:11;;;;;;;2.80;2.60;;;23.90;40.70;;;;;;5027660;28;20438;-75
2020/12/03 16:28:38;;;;;;;2.85;2.65;;;24.00;40.70;;;;;;5031616;28;20436;-74
2020/12/03 16:31:05;;;;;;;2.55;2.35;;;24.00;40.70;;;;;;5028910;28;20521;-74
2020/12/03 16:33:31;;;;;;;3.05;2.85;;;24.00;40.40;;;;;;5029897;28;20438;-73
2020/12/03 16:35:57;;;;;;;2.70;2.50;;;24.10;40.30;;;;;;5028656;28;20443;-74
2020/12/03 16:38:23;;;;;;;2.60;2.40;;;24.00;40.30;;;;;;5031890;28;20442;-73
2020/12/03 16:40:54;;;;;;;2.60;2.40;;;23.90;40.50;;;;;;5031477;28;20430;-75
2020/12/03 16:43:20;;;;;;;2.72;2.53;;;23.90;40.50;;;;;;5029927;28;20434;-73
2020/12/03 16:45:48;;;;;;;2.50;2.30;;;23.90;40.20;;;;;;5029423;28;20431;-73
2020/12/03 16:48:14;;;;;;;2.53;2.33;;;23.80;40.10;;;;;;5029917;28;20879;-72
2020/12/03 16:50:40;;;;;;;2.70;2.50;;;23.80;40.20;;;;;;5030883;28;20415;-73
2020/12/03 16:53:06;;;;;;;2.65;2.45;;;23.70;40.10;;;;;;5028645;28;20440;-73
2020/12/03 16:55:32;;;;;;;2.60;2.40;;;23.70;40.00;;;;;;5030571;28;20469;-73
2020/12/03 16:57:58;;;;;;;2.63;2.42;;;23.80;39.80;;;;;;5030720;28;20423;-73
2020/12/03 17:00:25;;;;;;;2.53;2.33;;;23.80;39.70;;;;;;5030140;28;20449;-73
2020/12/03 17:02:52;;;;;;;2.83;2.55;;;23.90;39.50;;;;;;5027506;28;20451;-72
2020/12/03 17:05:18;;;;;;;2.55;2.35;;;23.90;39.30;;;;;;5028595;28;20435;-73
2020/12/03 17:07:47;;;;;;;2.70;2.50;;;23.90;39.20;;;;;;5029457;28;20435;-73
2020/12/03 17:10:13;;;;;;;2.70;2.50;;;23.90;39.20;;;;;;5029259;28;20446;-73
2020/12/03 17:12:39;;;;;;;2.60;2.40;;;24.10;39.00;;;;;;5026670;28;20519;-73
2020/12/03 17:15:05;;;;;;;3.05;2.78;;;24.10;38.70;;;;;;5028368;28;20450;-73
2020/12/03 17:17:31;;;;;;;2.70;2.50;;;24.20;38.70;;;;;;5030126;28;20415;-73
2020/12/03 17:19:58;;;;;;;2.80;2.60;;;24.20;38.60;;;;;;5028562;28;20480;-73
2020/12/03 17:22:24;;;;;;;2.92;2.72;;;24.20;38.50;;;;;;5025989;28;20871;-73
2020/12/03 17:24:51;;;;;;;2.78;2.55;;;24.30;38.50;;;;;;5028037;28;20430;-73
2020/12/03 17:27:17;;;;;;;2.33;2.13;;;24.40;38.40;;;;;;5028692;28;20427;-73
2020/12/03 17:29:43;;;;;;;2.50;2.30;;;24.30;38.40;;;;;;5031639;28;20516;-73
2020/12/03 17:32:09;;;;;;;2.60;2.40;;;24.30;38.40;;;;;;5029477;28;20449;-73
2020/12/03 17:34:35;;;;;;;2.20;2.05;;;24.30;38.30;;;;;;5022566;28;20495;-73
2020/12/03 17:37:06;;;;;;;2.10;2.00;;;24.20;38.50;;;;;;5030035;28;20426;-73
2020/12/03 17:39:33;;;;;;;2.87;2.67;;;24.20;38.40;;;;;;5029351;28;20920;-73
2020/12/03 17:42:01;;;;;;;2.50;2.30;;;24.30;38.30;;;;;;5029953;28;20431;-73
2020/12/03 17:44:27;;;;;;;2.53;2.33;;;24.20;38.30;;;;;;5026342;28;20922;-73
2020/12/03 17:46:53;;;;;;;2.53;2.33;;;24.20;38.40;;;;;;5030641;28;20501;-73
2020/12/03 17:49:20;;;;;;;2.55;2.30;;;24.10;38.40;;;;;;5027962;28;20457;-72
2020/12/03 17:51:46;;;;;;;2.70;2.30;;;24.20;38.60;;;;;;5028192;28;20438;-73
2020/12/03 17:54:13;;;;;;;2.38;2.17;;;24.20;38.50;;;;;;5029340;28;20481;-73
2020/12/03 17:56:50;;;;;;;2.80;2.42;;;24.20;38.30;;;;;;5024497;28;20435;-79
2020/12/03 17:59:17;;;;;;;2.47;2.28;;;24.10;38.50;;;;;;5026673;28;20442;-78
2020/12/03 18:01:43;;;;;;;2.58;2.38;;;24.10;38.60;;;;;;5028389;28;20497;-78
2020/12/03 18:04:09;;;;;;;2.80;2.60;;;24.20;39.00;;;;;;5028818;28;20437;-78
2020/12/03 18:06:35;;;;;;;3.03;2.50;;;24.20;38.20;;;;;;5026542;28;20454;-78
2020/12/03 18:09:02;;;;;;;2.90;2.10;;;24.20;38.20;;;;;;5027794;28;20435;-78
2020/12/03 18:11:30;;;;;;;2.80;2.60;;;24.20;38.10;;;;;;5024953;28;20427;-78
2020/12/03 18:13:56;;;;;;;2.63;2.43;;;24.20;38.10;;;;;;5026747;28;20435;-78
2020/12/03 18:16:22;;;;;;;2.67;2.47;;;24.30;38.00;;;;;;5025437;28;20436;-78
2020/12/03 18:18:48;;;;;;;2.50;2.30;;;24.20;38.10;;;;;;5025926;28;20811;-78
2020/12/03 18:21:17;;;;;;;2.45;2.25;;;24.30;37.90;;;;;;5025701;28;20737;-78
2020/12/03 18:23:43;;;;;;;2.67;2.47;;;24.20;38.20;;;;;;5025829;28;20434;-77
2020/12/03 18:26:10;;;;;;;2.83;2.63;;;24.20;38.00;;;;;;5029769;28;20855;-77
2020/12/03 18:28:37;;;;;;;2.40;2.20;;;24.30;38.00;;;;;;5025231;28;20496;-77
2020/12/03 18:31:03;;;;;;;2.72;2.53;;;24.20;37.90;;;;;;5028283;28;20728;-78
2020/12/03 18:33:32;;;;;;;2.58;2.38;;;24.20;38.00;;;;;;5025838;28;20435;-78
2020/12/03 18:35:59;;;;;;;2.58;2.38;;;24.20;37.90;;;;;;5018596;28;20438;-78
2020/12/03 18:38:25;;;;;;;2.60;2.40;;;24.20;37.80;;;;;;5023777;28;20447;-78
2020/12/03 18:40:52;;;;;;;2.47;2.28;;;24.30;37.90;;;;;;5026737;28;20473;-78
2020/12/03 18:43:18;;;;;;;2.53;2.33;;;24.30;37.90;;;;;;5022040;28;20438;-78
2020/12/03 18:45:45;;;;;;;2.80;2.60;;;24.30;37.90;;;;;;5019856;28;20440;-78
2020/12/03 18:48:11;;;;;;;3.57;3.27;;;24.30;37.90;;;;;;5024041;28;20565;-78
2020/12/03 18:50:37;;;;;;;3.40;3.10;;;24.10;37.50;;;;;;5023159;28;21271;-78
2020/12/03 18:53:04;;;;;;;3.25;3.03;;;24.20;37.30;;;;;;5026799;28;20534;-78
2020/12/03 18:55:30;;;;;;;2.92;2.72;;;24.20;37.30;;;;;;5023199;28;20431;-78
2020/12/03 18:57:56;;;;;;;2.97;2.78;;;24.10;37.50;;;;;;5024849;28;20438;-78
2020/12/03 19:00:22;;;;;;;2.95;2.75;;;24.00;37.60;;;;;;5026610;28;20438;-78
2020/12/03 19:02:50;;;;;;;3.00;2.63;;;23.90;37.70;;;;;;5025293;28;21120;-78
2020/12/03 19:05:17;;;;;;;2.87;2.67;;;23.90;37.80;;;;;;5027392;28;20550;-78
2020/12/03 19:07:43;;;;;;;2.93;2.73;;;23.80;38.10;;;;;;5026393;28;20442;-78
2020/12/03 19:10:09;;;;;;;2.70;2.50;;;23.70;38.20;;;;;;5023891;28;20434;-78
2020/12/03 19:12:36;;;;;;;2.92;2.72;;;23.60;38.40;;;;;;5025121;28;20510;-78
2020/12/03 19:15:02;;;;;;;2.50;2.30;;;23.50;38.80;;;;;;5023123;28;20461;-78
2020/12/03 19:17:28;;;;;;;2.90;2.70;;;23.40;38.90;;;;;;5024668;28;20440;-79
2020/12/03 19:19:55;;;;;;;2.70;2.50;;;23.20;39.10;;;;;;5025200;28;20552;-79
2020/12/03 19:22:22;;;;;;;2.75;2.55;;;23.10;39.20;;;;;;5023298;28;20442;-79
2020/12/03 19:24:48;;;;;;;2.90;2.70;;;23.20;39.30;;;;;;5022279;28;20952;-78
2020/12/03 19:27:14;;;;;;;2.65;2.45;;;23.10;39.50;;;;;;5024302;28;20445;-78
2020/12/03 19:29:41;;;;;;;2.80;2.60;;;23.00;39.40;;;;;;5022321;28;20442;-78
2020/12/03 19:32:07;;;;;;;3.05;2.42;;;23.00;39.40;;;;;;5019888;28;20474;-78
2020/12/03 19:34:34;;;;;;;2.60;2.40;;;22.90;39.60;;;;;;5023638;28;20468;-78
2020/12/03 19:37:01;;;;;;;2.70;2.50;;;22.80;39.70;;;;;;5025265;28;20975;-78
2020/12/03 19:39:28;;;;;;;2.90;2.70;;;22.90;39.80;;;;;;5024534;28;20917;-78
2020/12/03 19:41:54;;;;;;;3.00;2.80;;;22.80;39.80;;;;;;5022987;28;20442;-78
2020/12/03 19:44:20;;;;;;;3.20;2.55;;;22.80;39.70;;;;;;5025611;28;20441;-78
2020/12/03 19:46:46;;;;;;;2.55;2.35;;;22.80;40.00;;;;;;5026186;28;20786;-78
2020/12/03 19:49:16;;;;;;;2.65;2.45;;;22.80;40.00;;;;;;5025292;28;20434;-78
2020/12/03 19:51:42;;;;;;;2.90;2.70;;;22.80;40.10;;;;;;5023866;28;20742;-78
2020/12/03 19:54:09;;;;;;;2.90;2.70;;;22.70;40.20;;;;;;5022858;28;20439;-78
2020/12/03 19:56:35;;;;;;;3.08;2.88;;;22.50;40.40;;;;;;5026591;28;20446;-78
2020/12/03 19:59:02;;;;;;;2.97;2.78;;;22.50;40.70;;;;;;5023651;28;20430;-78
2020/12/03 20:01:28;;;;;;;2.95;2.75;;;22.40;40.90;;;;;;5027082;28;20439;-78
2020/12/03 20:03:54;;;;;;;2.60;2.40;;;22.20;41.00;;;;;;5024583;28;20834;-78
2020/12/03 20:06:20;;;;;;;2.80;2.60;;;22.20;41.10;;;;;;5026416;28;20469;-78
2020/12/03 20:08:46;;;;;;;2.50;2.30;;;22.20;41.10;;;;;;5026786;28;20438;-78
2020/12/03 20:11:14;;;;;;;2.72;2.53;;;22.10;41.20;;;;;;5024387;28;20767;-78
2020/12/03 20:13:40;;;;;;;2.80;2.60;;;22.00;41.30;;;;;;5023096;28;20898;-78
2020/12/03 20:16:07;;;;;;;2.43;2.23;;;22.10;41.40;;;;;;5024841;28;20446;-78
2020/12/03 20:18:36;;;;;;;2.80;2.60;;;22.00;41.40;;;;;;5023589;28;20521;-78
2020/12/03 20:21:03;;;;;;;3.08;2.80;;;22.00;41.50;;;;;;5022129;28;20863;-78
2020/12/03 20:23:29;;;;;;;2.80;2.60;;;22.10;41.20;;;;;;5024625;28;20440;-78
2020/12/03 20:25:55;;;;;;;3.00;2.80;;;22.20;41.10;;;;;;5025362;28;20446;-78
2020/12/03 20:28:28;;;;;;;2.80;2.60;;;22.20;41.00;;;;;;5022956;28;20431;-78
2020/12/03 20:30:54;;;;;;;3.00;2.80;;;22.30;40.90;;;;;;5024686;28;20502;-78
2020/12/03 20:33:20;;;;;;;2.90;2.70;;;22.30;40.80;;;;;;5023504;28;20433;-78
2020/12/03 20:35:46;;;;;;;3.03;2.83;;;22.40;40.70;;;;;;5023458;28;20756;-78
2020/12/03 20:38:13;;;;;;;2.78;2.55;;;22.40;40.40;;;;;;5020979;28;20423;-78
2020/12/03 20:40:40;;;;;;;3.20;3.00;;;22.50;40.30;;;;;;5024833;28;21004;-78
2020/12/03 20:43:06;;;;;;;2.88;2.67;;;22.40;40.30;;;;;;5025392;28;20510;-77
2020/12/03 20:45:33;;;;;;;2.70;2.50;;;22.50;40.30;;;;;;5023884;28;20443;-78
2020/12/03 20:47:59;;;;;;;2.75;2.55;;;22.50;40.30;;;;;;5024721;28;20434;-78